createdAt,value
2023-04-20T00:01:56.929Z,2.70
2023-04-20T00:04:23.559Z,2.66
2023-04-20T00:06:51.745Z,2.61
2023-04-20T00:09:18.813Z,2.64
2023-04-20T00:11:45.548Z,2.61
2023-04-20T00:14:12.160Z,2.58
2023-04-20T00:16:38.662Z,2.61
2023-04-20T00:19:05.181Z,2.53
2023-04-20T00:21:31.610Z,2.52
2023-04-20T00:23:58.095Z,2.53
2023-04-20T00:26:24.550Z,2.57
2023-04-20T00:28:51.777Z,2.56
2023-04-20T00:31:19.471Z,2.50
2023-04-20T00:33:46.046Z,2.42
2023-04-20T00:36:12.513Z,2.34
2023-04-20T00:38:39.159Z,2.34
2023-04-20T00:41:05.663Z,2.23
2023-04-20T00:43:32.202Z,2.26
2023-04-20T00:45:58.757Z,2.21
2023-04-20T00:48:25.330Z,2.26
2023-04-20T00:50:52.357Z,2.17
2023-04-20T00:53:19.180Z,2.27
2023-04-20T00:55:45.746Z,2.22
2023-04-20T00:58:12.580Z,2.20
2023-04-20T01:00:40.582Z,2.15
2023-04-20T01:03:08.771Z,2.10
2023-04-20T01:05:35.781Z,2.06
2023-04-20T01:08:02.334Z,2.00
2023-04-20T01:10:28.851Z,1.99
2023-04-20T01:12:55.310Z,2.09
2023-04-20T01:15:21.762Z,2.04
2023-04-20T01:17:49.657Z,2.00
2023-04-20T01:20:16.221Z,1.93
2023-04-20T01:22:54.259Z,1.88
2023-04-20T01:25:21.147Z,1.86
2023-04-20T01:27:48.069Z,1.77
2023-04-20T01:30:14.786Z,1.70
2023-04-20T01:32:41.408Z,1.66
2023-04-20T01:35:09.118Z,1.46
2023-04-20T01:37:36.399Z,1.36
2023-04-20T01:40:03.887Z,1.37
2023-04-20T01:42:30.491Z,1.41
2023-04-20T01:44:56.992Z,1.34
2023-04-20T01:47:23.519Z,1.27
2023-04-20T01:49:50.172Z,1.16
2023-04-20T01:52:16.663Z,1.07
2023-04-20T01:54:43.110Z,1.03
2023-04-20T01:57:09.584Z,1.08
2023-04-20T01:59:36.065Z,0.98
2023-04-20T02:02:02.578Z,0.88
2023-04-20T02:04:29.120Z,0.89
2023-04-20T02:06:55.676Z,0.93
2023-04-20T02:09:22.180Z,0.91
2023-04-20T02:11:48.779Z,0.94
2023-04-20T02:14:15.250Z,0.92
2023-04-20T02:16:42.756Z,0.93
2023-04-20T02:19:09.977Z,0.87
2023-04-20T02:21:36.468Z,0.86
2023-04-20T02:24:02.981Z,0.78
2023-04-20T02:26:29.457Z,0.73
2023-04-20T02:28:55.967Z,0.71
2023-04-20T02:31:22.514Z,0.69
2023-04-20T02:33:49.974Z,0.69
2023-04-20T02:36:16.467Z,0.68
2023-04-20T02:38:43.040Z,0.69
2023-04-20T02:41:09.525Z,0.68
2023-04-20T02:43:36.268Z,0.66
2023-04-20T02:46:02.824Z,0.46
2023-04-20T02:48:29.312Z,0.34
2023-04-20T02:50:56.804Z,0.21
2023-04-20T02:53:23.374Z,0.15
2023-04-20T02:55:49.973Z,0.20
2023-04-20T02:58:17.685Z,0.20
2023-04-20T03:00:44.289Z,0.09
2023-04-20T03:03:11.083Z,0.28
2023-04-20T03:05:37.683Z,0.31
2023-04-20T03:08:05.958Z,0.34
2023-04-20T03:10:32.685Z,0.39
2023-04-20T03:12:59.403Z,0.35
2023-04-20T03:15:25.934Z,0.42
2023-04-20T03:17:52.664Z,0.43
2023-04-20T03:20:19.243Z,0.45
2023-04-20T03:22:45.739Z,0.42
2023-04-20T03:25:12.420Z,0.31
2023-04-20T03:27:38.894Z,0.20
2023-04-20T03:30:06.923Z,0.22
2023-04-20T03:32:33.468Z,0.25
2023-04-20T03:34:59.974Z,0.22
2023-04-20T03:37:26.394Z,0.09
2023-04-20T03:39:52.848Z,-0.04
2023-04-20T03:42:19.497Z,-0.24
2023-04-20T03:44:46.019Z,-0.17
2023-04-20T03:47:12.615Z,-0.09
2023-04-20T03:49:39.105Z,-0.14
2023-04-20T03:52:05.892Z,-0.12
2023-04-20T03:54:32.309Z,-0.13
2023-04-20T03:56:58.797Z,-0.12
2023-04-20T03:59:25.313Z,-0.13
2023-04-20T04:01:52.017Z,-0.17
2023-04-20T04:04:19.008Z,-0.15
2023-04-20T04:06:46.072Z,-0.24
2023-04-20T04:09:12.504Z,-0.27
2023-04-20T04:11:38.974Z,-0.26
2023-04-20T04:14:05.516Z,-0.16
2023-04-20T04:16:32.283Z,-0.12
2023-04-20T04:18:58.745Z,-0.11
2023-04-20T04:21:25.634Z,-0.06
2023-04-20T04:23:52.091Z,0.01
2023-04-20T04:26:21.404Z,0.07
2023-04-20T04:28:49.315Z,0.13
2023-04-20T04:31:17.444Z,0.24
2023-04-20T04:33:45.763Z,0.26
2023-04-20T04:36:15.201Z,0.25
2023-04-20T04:38:44.998Z,0.29
2023-04-20T04:41:12.723Z,0.37
2023-04-20T04:43:43.078Z,0.39
2023-04-20T04:46:10.157Z,0.43
2023-04-20T04:48:38.070Z,0.45
2023-04-20T04:51:04.709Z,0.50
2023-04-20T04:53:31.238Z,0.55
2023-04-20T04:55:57.674Z,0.54
2023-04-20T04:58:24.205Z,0.51
2023-04-20T05:00:50.957Z,0.51
2023-04-20T05:03:17.831Z,0.52
2023-04-20T05:05:44.407Z,0.59
2023-04-20T05:08:11.219Z,0.62
2023-04-20T05:10:37.928Z,0.63
2023-04-20T05:13:04.402Z,0.67
2023-04-20T05:15:32.373Z,0.71
2023-04-20T05:17:58.996Z,0.73
2023-04-20T05:20:25.488Z,0.77
2023-04-20T05:22:52.037Z,0.85
2023-04-20T05:25:18.695Z,0.92
2023-04-20T05:27:45.191Z,0.90
2023-04-20T05:30:20.233Z,0.91
2023-04-20T05:32:51.104Z,1.02
2023-04-20T05:35:18.797Z,0.93
2023-04-20T05:37:45.355Z,0.92
2023-04-20T05:40:12.935Z,0.91
2023-04-20T05:42:39.549Z,0.92
2023-04-20T05:45:06.940Z,0.93
2023-04-20T05:47:33.480Z,0.95
2023-04-20T05:49:59.944Z,0.98
2023-04-20T05:52:26.512Z,0.98
2023-04-20T05:54:53.243Z,1.02
2023-04-20T05:57:19.669Z,1.03
2023-04-20T05:59:46.671Z,1.03
2023-04-20T06:02:13.236Z,1.02
2023-04-20T06:04:39.910Z,0.98
2023-04-20T06:07:06.401Z,0.80
2023-04-20T06:09:32.879Z,0.76
2023-04-20T06:12:00.681Z,0.55
2023-04-20T06:14:27.131Z,0.34
2023-04-20T06:16:53.941Z,0.15
2023-04-20T06:19:20.466Z,-0.04
2023-04-20T06:21:46.984Z,-0.19
2023-04-20T06:24:13.609Z,-0.34
2023-04-20T06:26:40.039Z,-0.35
2023-04-20T06:29:06.753Z,-0.31
2023-04-20T06:31:33.341Z,-0.31
2023-04-20T06:33:59.847Z,-0.27
2023-04-20T06:36:27.637Z,-0.27
2023-04-20T06:38:55.018Z,-0.24
2023-04-20T06:41:21.475Z,-0.22
2023-04-20T06:43:47.910Z,-0.12
2023-04-20T06:46:14.528Z,-0.16
2023-04-20T06:48:41.206Z,-0.12
2023-04-20T06:51:07.663Z,-0.27
2023-04-20T06:53:34.395Z,-0.29
2023-04-20T06:56:00.898Z,-0.27
2023-04-20T06:58:27.350Z,-0.22
2023-04-20T07:00:54.102Z,-0.19
2023-04-20T07:03:20.791Z,-0.02
2023-04-20T07:05:47.360Z,0.05
2023-04-20T07:08:15.836Z,0.25
2023-04-20T07:10:42.568Z,0.50
2023-04-20T07:13:09.991Z,0.70
2023-04-20T07:15:36.412Z,0.88
2023-04-20T07:18:03.053Z,1.11
2023-04-20T07:20:29.825Z,0.93
2023-04-20T07:22:56.323Z,0.86
2023-04-20T07:25:23.303Z,0.78
2023-04-20T07:27:49.957Z,0.71
2023-04-20T07:30:16.448Z,0.79
2023-04-20T07:32:42.916Z,0.84
2023-04-20T07:35:09.948Z,0.77
2023-04-20T07:37:36.478Z,0.61
2023-04-20T07:40:06.754Z,0.63
2023-04-20T07:42:36.802Z,0.48
2023-04-20T07:45:04.589Z,0.52
2023-04-20T07:47:31.103Z,0.40
2023-04-20T07:49:57.650Z,0.51
2023-04-20T07:52:25.691Z,0.57
2023-04-20T07:54:58.006Z,0.50
2023-04-20T07:57:24.653Z,0.61
2023-04-20T07:59:51.210Z,0.47
2023-04-20T08:02:17.765Z,0.42
2023-04-20T08:04:44.525Z,0.42
2023-04-20T08:07:11.315Z,0.35
2023-04-20T08:09:38.102Z,0.38
2023-04-20T08:12:05.289Z,0.47
2023-04-20T08:14:32.100Z,0.40
2023-04-20T08:16:58.653Z,0.32
2023-04-20T08:19:25.235Z,0.14
2023-04-20T08:21:51.895Z,0.13
2023-04-20T08:24:18.502Z,0.08
2023-04-20T08:26:45.701Z,0.07
2023-04-20T08:29:12.151Z,0.01
2023-04-20T08:31:38.903Z,0.05
2023-04-20T08:34:05.354Z,0.07
2023-04-20T08:36:32.164Z,0.02
2023-04-20T08:39:09.877Z,-0.08
2023-04-20T08:41:36.831Z,-0.01
2023-04-20T08:44:03.809Z,0.04
2023-04-20T08:46:31.096Z,0.12
2023-04-20T08:49:00.326Z,0.14
2023-04-20T08:51:27.402Z,-0.03
2023-04-20T08:53:56.297Z,0.00
2023-04-20T08:56:35.617Z,0.09
2023-04-20T08:59:03.900Z,0.06
2023-04-20T09:01:35.505Z,0.14
2023-04-20T09:04:16.720Z,0.24
2023-04-20T09:06:50.073Z,0.21
2023-04-20T09:09:17.111Z,0.36
2023-04-20T09:11:43.922Z,0.35
2023-04-20T09:14:12.900Z,0.22
2023-04-20T09:16:51.063Z,0.30
2023-04-20T09:19:31.115Z,0.29
2023-04-20T09:22:01.245Z,0.39
2023-04-20T09:24:34.961Z,0.51
2023-04-20T09:27:14.260Z,0.65
2023-04-20T09:29:40.744Z,0.58
2023-04-20T09:32:07.337Z,0.61
2023-04-20T09:34:46.737Z,0.74
2023-04-20T09:37:16.642Z,0.67
2023-04-20T09:39:44.565Z,0.78
2023-04-20T09:42:15.521Z,0.79
2023-04-20T09:44:42.774Z,1.04
2023-04-20T09:47:17.805Z,0.88
2023-04-20T09:49:46.553Z,1.02
2023-04-20T09:52:18.007Z,1.14
2023-04-20T09:54:45.378Z,1.14
2023-04-20T09:57:13.034Z,1.27
2023-04-20T09:59:42.929Z,1.29
2023-04-20T10:02:12.425Z,1.31
2023-04-20T10:04:54.379Z,1.49
2023-04-20T10:07:31.758Z,1.44
2023-04-20T10:10:15.904Z,1.48
2023-04-20T10:12:49.503Z,1.11
2023-04-20T10:15:16.703Z,1.27
2023-04-20T10:17:43.934Z,1.28
2023-04-20T10:20:29.510Z,1.32
2023-04-20T10:23:09.622Z,1.57
2023-04-20T10:25:37.005Z,1.81
2023-04-20T10:28:08.305Z,1.91
2023-04-20T10:30:35.417Z,1.76
2023-04-20T10:33:11.186Z,1.97
2023-04-20T10:35:46.841Z,1.75
2023-04-20T10:38:13.437Z,1.71
2023-04-20T10:40:40.252Z,1.52
2023-04-20T10:43:19.695Z,1.66
2023-04-20T10:45:46.192Z,1.43
2023-04-20T10:48:14.096Z,1.68
2023-04-20T10:50:41.920Z,1.65
2023-04-20T10:53:22.698Z,1.69
2023-04-20T10:55:59.581Z,1.76
2023-04-20T10:58:26.277Z,1.46
2023-04-20T11:01:01.157Z,1.27
2023-04-20T11:03:29.357Z,1.35
2023-04-20T11:06:00.913Z,1.14
2023-04-20T11:08:40.484Z,1.12
2023-04-20T11:11:21.692Z,1.26
2023-04-20T11:13:48.614Z,1.37
2023-04-20T11:16:16.907Z,1.45
2023-04-20T11:18:52.617Z,1.85
2023-04-20T11:21:20.012Z,1.59
2023-04-20T11:23:46.798Z,1.68
2023-04-20T11:26:13.475Z,1.48
2023-04-20T11:28:55.853Z,1.49
2023-04-20T11:31:23.444Z,1.50
2023-04-20T11:33:50.200Z,1.43
2023-04-20T11:36:23.912Z,1.68
2023-04-20T11:38:51.117Z,1.92
2023-04-20T11:41:18.274Z,2.08
2023-04-20T11:43:46.044Z,2.19
2023-04-20T11:46:17.122Z,2.29
2023-04-20T11:48:44.249Z,2.17
2023-04-20T11:51:10.813Z,2.19
2023-04-20T11:53:37.978Z,2.18
2023-04-20T11:56:05.584Z,2.30
2023-04-20T11:58:32.017Z,2.43
2023-04-20T12:01:00.080Z,2.54
2023-04-20T12:03:27.486Z,2.46
2023-04-20T12:05:54.164Z,2.81
2023-04-20T12:08:21.143Z,2.76
2023-04-20T12:10:47.612Z,3.40
2023-04-20T12:13:14.970Z,3.49
2023-04-20T12:15:41.462Z,3.39
2023-04-20T12:18:08.094Z,3.02
2023-04-20T12:20:34.677Z,3.00
2023-04-20T12:23:02.412Z,2.90
2023-04-20T12:25:28.885Z,2.75
2023-04-20T12:27:55.334Z,2.60
2023-04-20T12:30:21.827Z,2.78
2023-04-20T12:32:48.535Z,2.86
2023-04-20T12:35:15.051Z,2.71
2023-04-20T12:37:41.570Z,2.73
2023-04-20T12:40:08.572Z,2.80
2023-04-20T12:42:35.251Z,2.79
2023-04-20T12:45:01.812Z,2.82
2023-04-20T12:47:28.346Z,2.83
2023-04-20T12:49:55.130Z,2.98
2023-04-20T12:52:21.658Z,2.52
2023-04-20T12:54:48.090Z,2.98
2023-04-20T12:57:14.548Z,3.04
2023-04-20T12:59:41.228Z,3.28
2023-04-20T13:02:07.712Z,3.44
2023-04-20T13:04:36.381Z,3.30
2023-04-20T13:07:05.259Z,3.89
2023-04-20T13:09:31.729Z,3.57
2023-04-20T13:11:58.948Z,3.82
2023-04-20T13:14:26.436Z,3.99
2023-04-20T13:16:55.142Z,4.20
2023-04-20T13:19:22.093Z,3.87
2023-04-20T13:21:48.558Z,3.79
2023-04-20T13:24:15.011Z,4.22
2023-04-20T13:26:41.486Z,4.53
2023-04-20T13:29:08.139Z,4.37
2023-04-20T13:31:34.703Z,4.70
2023-04-20T13:34:01.181Z,4.49
2023-04-20T13:36:28.316Z,4.64
2023-04-20T13:38:57.374Z,4.63
2023-04-20T13:41:23.891Z,4.62
2023-04-20T13:43:50.741Z,4.88
2023-04-20T13:46:17.834Z,5.24
2023-04-20T13:48:44.357Z,5.59
2023-04-20T13:51:10.964Z,5.14
2023-04-20T13:53:37.466Z,5.34
2023-04-20T13:56:04.944Z,5.20
2023-04-20T13:58:31.619Z,5.06
2023-04-20T14:00:58.105Z,4.72
2023-04-20T14:03:26.177Z,5.02
2023-04-20T14:05:53.054Z,5.04
2023-04-20T14:08:19.901Z,5.06
2023-04-20T14:10:46.357Z,5.31
2023-04-20T14:13:12.878Z,5.08
2023-04-20T14:15:39.468Z,5.20
2023-04-20T14:18:06.061Z,4.99
2023-04-20T14:20:32.733Z,5.05
2023-04-20T14:22:59.219Z,5.31
2023-04-20T14:25:25.707Z,5.73
2023-04-20T14:27:52.175Z,5.62
2023-04-20T14:30:18.714Z,5.38
2023-04-20T14:32:59.004Z,5.13
2023-04-20T14:35:28.147Z,5.14
2023-04-20T14:37:54.656Z,5.79
2023-04-20T14:40:21.273Z,5.80
2023-04-20T14:42:47.749Z,5.51
2023-04-20T14:45:14.362Z,5.58
2023-04-20T14:47:41.190Z,5.69
2023-04-20T14:50:09.044Z,5.91
2023-04-20T14:52:35.495Z,5.73
2023-04-20T14:55:02.759Z,5.53
2023-04-20T14:57:29.636Z,5.60
2023-04-20T14:59:56.072Z,5.81
2023-04-20T15:02:22.632Z,6.02
2023-04-20T15:04:49.320Z,6.22
2023-04-20T15:07:15.961Z,6.50
2023-04-20T15:09:42.392Z,6.60
2023-04-20T15:12:08.806Z,6.87
2023-04-20T15:14:35.425Z,6.64
2023-04-20T15:17:01.927Z,6.52
2023-04-20T15:19:28.500Z,6.15
2023-04-20T15:21:55.001Z,5.93
2023-04-20T15:24:21.472Z,5.83
2023-04-20T15:26:48.008Z,5.89
2023-04-20T15:29:14.549Z,5.96
2023-04-20T15:31:43.381Z,6.03
2023-04-20T15:34:11.216Z,5.88
2023-04-20T15:36:38.144Z,6.14
2023-04-20T15:39:04.731Z,6.18
2023-04-20T15:41:31.169Z,6.27
2023-04-20T15:43:57.741Z,6.27
2023-04-20T15:46:26.439Z,6.35
2023-04-20T15:48:53.078Z,6.26
2023-04-20T15:51:20.117Z,6.32
2023-04-20T15:53:50.497Z,6.48
2023-04-20T15:56:18.740Z,6.49
2023-04-20T15:58:46.029Z,6.68
2023-04-20T16:01:12.520Z,6.81
2023-04-20T16:03:39.355Z,6.81
2023-04-20T16:06:07.145Z,6.90
2023-04-20T16:08:33.774Z,6.23
2023-04-20T16:11:00.311Z,5.66
2023-04-20T16:13:27.012Z,5.36
2023-04-20T16:15:55.700Z,5.34
2023-04-20T16:18:22.214Z,5.28
2023-04-20T16:20:48.677Z,5.30
2023-04-20T16:23:15.200Z,5.32
2023-04-20T16:25:41.888Z,5.14
2023-04-20T16:28:08.649Z,4.37
2023-04-20T16:30:36.933Z,3.62
2023-04-20T16:33:03.871Z,3.43
2023-04-20T16:35:30.366Z,3.45
2023-04-20T16:37:57.500Z,3.49
2023-04-20T16:40:26.165Z,3.35
2023-04-20T16:42:52.639Z,3.35
2023-04-20T16:45:19.403Z,3.36
2023-04-20T16:47:46.399Z,3.32
2023-04-20T16:50:19.244Z,3.30
2023-04-20T16:52:49.507Z,3.34
2023-04-20T16:55:16.018Z,3.29
2023-04-20T16:57:42.595Z,3.31
2023-04-20T17:00:10.724Z,3.38
2023-04-20T17:02:38.247Z,3.38
2023-04-20T17:05:06.082Z,3.39
2023-04-20T17:07:33.154Z,3.49
2023-04-20T17:09:59.815Z,3.42
2023-04-20T17:12:26.370Z,3.44
2023-04-20T17:14:52.832Z,3.46
2023-04-20T17:17:19.295Z,3.53
2023-04-20T17:19:46.830Z,3.50
2023-04-20T17:22:13.401Z,3.50
2023-04-20T17:24:39.829Z,3.45
2023-04-20T17:27:06.322Z,3.43
2023-04-20T17:29:38.146Z,3.45
2023-04-20T17:32:05.800Z,3.44
2023-04-20T17:34:32.412Z,3.43
2023-04-20T17:36:58.861Z,3.42
2023-04-20T17:39:26.122Z,3.43
2023-04-20T17:41:52.568Z,3.44
2023-04-20T17:44:19.928Z,3.44
2023-04-20T17:46:46.681Z,3.45
2023-04-20T17:49:13.219Z,3.52
2023-04-20T17:51:39.691Z,3.48
2023-04-20T17:54:07.680Z,3.49
2023-04-20T17:56:34.362Z,3.37
2023-04-20T17:59:01.197Z,3.20
2023-04-20T18:01:28.155Z,3.08
2023-04-20T18:03:54.885Z,3.01
2023-04-20T18:06:21.585Z,2.86
2023-04-20T18:08:48.112Z,2.68
2023-04-20T18:11:14.674Z,2.50
2023-04-20T18:13:41.254Z,2.35
2023-04-20T18:16:08.417Z,2.38
2023-04-20T18:18:35.158Z,2.31
2023-04-20T18:21:01.673Z,2.28
2023-04-20T18:23:29.915Z,2.10
2023-04-20T18:25:56.550Z,2.04
2023-04-20T18:28:23.483Z,1.90
2023-04-20T18:30:49.981Z,1.91
2023-04-20T18:33:16.471Z,1.94
2023-04-20T18:35:43.551Z,1.98
2023-04-20T18:38:10.032Z,1.92
2023-04-20T18:40:36.666Z,1.96
2023-04-20T18:43:03.429Z,1.97
2023-04-20T18:45:30.150Z,1.95
2023-04-20T18:47:58.063Z,1.94
2023-04-20T18:50:24.544Z,1.94
2023-04-20T18:52:50.963Z,1.92
2023-04-20T18:55:17.573Z,1.87
2023-04-20T18:57:44.000Z,1.85
2023-04-20T19:00:10.896Z,1.81
2023-04-20T19:02:37.745Z,1.79
2023-04-20T19:05:04.746Z,1.78
2023-04-20T19:07:31.180Z,1.71
2023-04-20T19:09:57.700Z,1.71
2023-04-20T19:12:24.285Z,1.72
2023-04-20T19:14:50.777Z,1.80
2023-04-20T19:17:17.230Z,1.75
2023-04-20T19:19:43.695Z,1.74
2023-04-20T19:22:10.167Z,1.76
2023-04-20T19:24:36.619Z,1.81
2023-04-20T19:27:03.216Z,1.80
2023-04-20T19:29:29.766Z,1.80
2023-04-20T19:31:56.387Z,1.81
2023-04-20T19:34:22.920Z,1.82
2023-04-20T19:36:49.491Z,1.84
2023-04-20T19:39:16.063Z,1.86
2023-04-20T19:41:42.510Z,1.88
2023-04-20T19:44:10.495Z,1.88
2023-04-20T19:46:38.606Z,1.91
2023-04-20T19:49:05.653Z,1.88
2023-04-20T19:51:32.641Z,1.95
2023-04-20T19:54:03.232Z,1.91
2023-04-20T19:56:29.898Z,1.89
2023-04-20T19:58:56.412Z,1.90
2023-04-20T20:01:22.927Z,1.93
2023-04-20T20:03:49.603Z,1.90
2023-04-20T20:06:16.308Z,1.89
2023-04-20T20:08:42.765Z,1.92
2023-04-20T20:11:09.250Z,1.90
2023-04-20T20:13:35.757Z,1.88
2023-04-20T20:16:02.798Z,1.88
2023-04-20T20:18:29.268Z,1.90
2023-04-20T20:20:55.845Z,1.86
2023-04-20T20:23:22.446Z,1.89
2023-04-20T20:25:48.916Z,1.89
2023-04-20T20:28:15.543Z,1.92
2023-04-20T20:30:45.022Z,1.89
2023-04-20T20:33:12.309Z,1.93
2023-04-20T20:35:39.750Z,1.92
2023-04-20T20:38:07.809Z,1.94
2023-04-20T20:40:35.450Z,1.91
2023-04-20T20:43:02.098Z,1.94
2023-04-20T20:45:28.936Z,1.95
2023-04-20T20:47:55.804Z,1.97
2023-04-20T20:50:22.943Z,1.95
2023-04-20T20:52:49.744Z,1.96
2023-04-20T20:55:16.274Z,1.95
2023-04-20T20:57:42.741Z,1.94
2023-04-20T21:00:10.368Z,1.99
2023-04-20T21:02:37.737Z,1.97
2023-04-20T21:05:04.874Z,2.03
2023-04-20T21:07:31.387Z,1.99
2023-04-20T21:09:57.840Z,1.98
2023-04-20T21:12:26.399Z,1.99
2023-04-20T21:14:53.480Z,1.99
2023-04-20T21:17:20.312Z,1.98
2023-04-20T21:19:48.438Z,2.00
2023-04-20T21:22:15.064Z,2.02
2023-04-20T21:24:41.500Z,2.04
2023-04-20T21:27:08.058Z,2.05
2023-04-20T21:29:34.628Z,2.03
2023-04-20T21:32:01.107Z,2.03
2023-04-20T21:34:27.788Z,2.04
2023-04-20T21:36:54.583Z,2.02
2023-04-20T21:39:21.211Z,2.06
2023-04-20T21:41:47.800Z,2.09
2023-04-20T21:44:14.265Z,2.07
2023-04-20T21:46:40.841Z,2.08
2023-04-20T21:49:07.333Z,2.12
2023-04-20T21:51:33.887Z,2.11
2023-04-20T21:54:00.325Z,2.13
2023-04-20T21:56:26.926Z,2.16
2023-04-20T21:58:53.428Z,2.17
2023-04-20T22:01:19.855Z,2.17
2023-04-20T22:03:47.616Z,2.19
2023-04-20T22:06:14.542Z,2.25
2023-04-20T22:08:41.885Z,2.28
2023-04-20T22:11:08.914Z,2.32
2023-04-20T22:13:37.633Z,2.31
2023-04-20T22:16:04.463Z,2.34
2023-04-20T22:18:30.945Z,2.35
2023-04-20T22:20:57.427Z,2.38
2023-04-20T22:23:24.258Z,2.41
2023-04-20T22:25:50.903Z,2.42
2023-04-20T22:28:17.358Z,2.47
2023-04-20T22:30:45.303Z,2.46
2023-04-20T22:33:11.746Z,2.50
2023-04-20T22:35:38.370Z,2.58
2023-04-20T22:38:04.886Z,2.56
2023-04-20T22:40:31.388Z,2.55
2023-04-20T22:42:57.872Z,2.58
2023-04-20T22:45:24.362Z,2.58
2023-04-20T22:47:50.882Z,2.64
2023-04-20T22:50:17.409Z,2.69
2023-04-20T22:52:43.956Z,2.65
2023-04-20T22:55:11.123Z,2.68
2023-04-20T22:57:38.879Z,2.68
2023-04-20T23:00:10.123Z,2.66
2023-04-20T23:02:37.592Z,2.66
2023-04-20T23:05:05.815Z,2.65
2023-04-20T23:07:33.328Z,2.67
2023-04-20T23:10:00.426Z,2.68
2023-04-20T23:12:29.284Z,2.69
2023-04-20T23:14:56.670Z,2.65
2023-04-20T23:17:23.355Z,2.66
2023-04-20T23:19:50.942Z,2.65
2023-04-20T23:22:17.630Z,2.61
2023-04-20T23:24:44.320Z,2.65
2023-04-20T23:27:10.882Z,2.63
2023-04-20T23:29:37.307Z,2.65
2023-04-20T23:32:04.055Z,2.61
2023-04-20T23:34:30.658Z,2.60
2023-04-20T23:36:57.101Z,2.57
2023-04-20T23:39:23.666Z,2.53
2023-04-20T23:41:50.365Z,2.51
2023-04-20T23:44:16.813Z,2.45
2023-04-20T23:46:43.248Z,2.48
2023-04-20T23:49:09.789Z,2.47
2023-04-20T23:51:36.247Z,2.48
2023-04-20T23:54:03.470Z,2.49
2023-04-20T23:56:29.933Z,2.54
2023-04-20T23:58:56.362Z,2.51
